Detall de PIREP

Printer-friendly versionPDF version

[2010/01/15 08:06:00]
Flight IATA:CT2111
Pilot Number:041
Company ICAO:CAT
Aircraft Type:F50/A
PAX:30
Departing Airport: LEST
Destination Airport: LEVC
Alternate Airport:LEAL
Online: VATSIM
Route:FORNO1A A33 ZMR A33 DISKO A33 INDEG A33 MAGIN A33 HORTA A33 CJN A33 PRADO A33 CENTA1C
Flight Level:FL180
No Slew and time accel
No pause
Crash detect
Detect pilot in Cockpit between each 30 and 45 minutes
08:06 Zero fuel Weight: 35102 Lbs, Fuel Weight: 4962 Lbs
08:06 VATSIM:LEST 150730Z 13008KT 9999 FEW017 06/04 Q1018 NOSIG
08:06 VATSIM:LEVC 150730Z 29011KT CAVOK 10/00 Q1019 NOSIG
08:07 VOICE CATALONIAN
08:09 Parking Brakes off
08:18 Take-off
08:18 Take off Weight: 39943 Lbs
08:18 Wind: 136º @ 007 Knots Heading: 164º
08:18 POS N42º 53´ 53´´ W008º 24´ 56´´
08:18 Gear Up: 143 Knots
08:18 Flaps:1 at 143 Knots
08:19 Flaps:0 at 162 Knots
08:33 Wind:240º@014 Knots Heading: 12
8º Ground Speed: 224 Knots Altitude 10511 ft
08:39 TOC
08:39 Fuel Weight: 4099 Lb
08:48 Wind:283º@033 Knots Heading: 126º Ground Speed: 287 Knots Altitude 18257 ft
09:03 Wind:291º@032 Knots Heading: 116º Ground Speed: 290 Knots Altitude 18274 ft
09:18 Wind:309º@029 Knots Heading: 114º Ground Speed: 285 Knots Altitude 18307 ft
09:33 Wind:315º@028 Knots Heading: 115º Ground Speed: 285 Knots Altitude 18320 ft
09:35 TOD
09:35 Fuel Weight: 2411 Lb
09:48 Wind:338º@023 Knots Heading: 115º Ground Speed: 246 Knots Altitude 7319 ft
10:01 Flaps:1 at 158 Knots
10:01 Flaps:2 at 148 Knots
10:03 Wind:325º@008 Knots Heading: 088º Ground Speed: 161 Knots Altitude 3654 ft
10:10 Flaps:3 at 135 Knots
10:11 Flaps:4 at 130 Knots
10:12 Flaps:5 at 123 Knots
10:12 Gear Down: 112 Knots
10:13 Flaps:6 at 111 Knots
10:18 Wind:303º@008 Knots Heading: 296º Ground Speed: 087 Knots Altitude
337 ft
10:18 TouchDown:Rate -329 ft/min Speed: 88 Knots
10:18 VATSIM:LEVC 151000Z 30010KT 270V330 CAVOK 14/01 Q1021 NOSIG
10:18 Land
10:18 Wind:312º@008 Knots
10:18 Heading: 296º
10:18 Flight Duration: 02:00
10:18 Landing Weight: 36556 Lbs
10:18 POS N39º 29´ 15´´ W000º 28´ 37´´
10:20 Parking brakes on
10:20 Block to Block Duration: 02:11
10:20 Final Fuel: 1437 Lbls
10:20 Spent Fuel: 3525 Lbls
10:20 Flight Length: 490 NM
10:20 TOD Land Length: 147 NM

Exportar CSV

Powered by Drupal - Modified by Danger4k